sensor_id;sensor_type;location;lat;lon;timestamp;P1;durP1;ratioP1;P2;durP2;ratioP2
8574;SDS011;4325;42.520;27.448;2022-09-27T00:00:27;5.57;;;5.07;;
8574;SDS011;4325;42.520;27.448;2022-09-27T00:02:54;7.83;;;5.37;;
8574;SDS011;4325;42.520;27.448;2022-09-27T00:05:21;7.53;;;5.63;;
8574;SDS011;4325;42.520;27.448;2022-09-27T00:07:48;6.00;;;5.40;;
8574;SDS011;4325;42.520;27.448;2022-09-27T00:10:15;8.10;;;5.77;;
8574;SDS011;4325;42.520;27.448;2022-09-27T00:12:42;9.73;;;5.93;;
8574;SDS011;4325;42.520;27.448;2022-09-27T00:15:11;5.57;;;5.07;;
8574;SDS011;4325;42.520;27.448;2022-09-27T00:17:39;9.30;;;6.03;;
8574;SDS011;4325;42.520;27.448;2022-09-27T00:20:07;6.10;;;5.50;;
8574;SDS011;4325;42.520;27.448;2022-09-27T00:22:35;8.00;;;5.70;;
8574;SDS011;4325;42.520;27.448;2022-09-27T00:25:02;6.77;;;5.70;;
8574;SDS011;4325;42.520;27.448;2022-09-27T00:27:31;5.77;;;5.20;;
8574;SDS011;4325;42.520;27.448;2022-09-27T00:29:58;5.97;;;5.47;;
8574;SDS011;4325;42.520;27.448;2022-09-27T00:32:27;6.30;;;5.70;;
8574;SDS011;4325;42.520;27.448;2022-09-27T00:34:54;5.80;;;5.30;;
8574;SDS011;4325;42.520;27.448;2022-09-27T00:37:21;5.90;;;5.20;;
8574;SDS011;4325;42.520;27.448;2022-09-27T00:39:47;10.27;;;5.40;;
8574;SDS011;4325;42.520;27.448;2022-09-27T00:42:14;7.93;;;5.17;;
8574;SDS011;4325;42.520;27.448;2022-09-27T00:44:54;7.87;;;5.10;;
8574;SDS011;4325;42.520;27.448;2022-09-27T00:47:28;5.80;;;5.20;;
8574;SDS011;4325;42.520;27.448;2022-09-27T00:49:58;6.03;;;4.90;;
8574;SDS011;4325;42.520;27.448;2022-09-27T00:52:28;5.40;;;4.57;;
8574;SDS011;4325;42.520;27.448;2022-09-27T00:55:03;5.67;;;5.00;;
8574;SDS011;4325;42.520;27.448;2022-09-27T00:57:35;10.43;;;5.70;;
8574;SDS011;4325;42.520;27.448;2022-09-27T01:00:04;7.70;;;4.97;;
8574;SDS011;4325;42.520;27.448;2022-09-27T01:02:35;7.10;;;5.20;;
8574;SDS011;4325;42.520;27.448;2022-09-27T01:05:04;6.13;;;5.07;;
8574;SDS011;4325;42.520;27.448;2022-09-27T01:07:32;5.93;;;5.33;;
8574;SDS011;4325;42.520;27.448;2022-09-27T01:09:59;5.63;;;5.13;;
8574;SDS011;4325;42.520;27.448;2022-09-27T01:12:27;6.93;;;5.47;;
8574;SDS011;4325;42.520;27.448;2022-09-27T01:15:07;9.60;;;5.20;;
8574;SDS011;4325;42.520;27.448;2022-09-27T01:17:46;8.63;;;5.30;;
8574;SDS011;4325;42.520;27.448;2022-09-27T01:26:31;6.50;;;5.40;;
8574;SDS011;4325;42.520;27.448;2022-09-27T01:29:24;5.83;;;5.33;;
8574;SDS011;4325;42.520;27.448;2022-09-27T01:32:02;5.87;;;5.30;;
8574;SDS011;4325;42.520;27.448;2022-09-27T01:34:33;6.50;;;5.50;;
8574;SDS011;4325;42.520;27.448;2022-09-27T01:37:09;7.03;;;4.87;;
8574;SDS011;4325;42.520;27.448;2022-09-27T01:39:46;10.43;;;5.97;;
8574;SDS011;4325;42.520;27.448;2022-09-27T01:42:24;6.07;;;5.23;;
8574;SDS011;4325;42.520;27.448;2022-09-27T01:44:57;9.37;;;5.77;;
8574;SDS011;4325;42.520;27.448;2022-09-27T01:47:32;5.77;;;5.20;;
8574;SDS011;4325;42.520;27.448;2022-09-27T01:50:05;7.00;;;5.20;;
8574;SDS011;4325;42.520;27.448;2022-09-27T01:52:36;8.07;;;5.73;;
8574;SDS011;4325;42.520;27.448;2022-09-27T01:55:12;6.83;;;5.40;;
8574;SDS011;4325;42.520;27.448;2022-09-27T01:57:43;7.73;;;5.60;;
8574;SDS011;4325;42.520;27.448;2022-09-27T02:00:17;8.33;;;5.97;;
8574;SDS011;4325;42.520;27.448;2022-09-27T02:02:46;6.97;;;5.83;;
8574;SDS011;4325;42.520;27.448;2022-09-27T02:05:17;8.30;;;5.43;;
8574;SDS011;4325;42.520;27.448;2022-09-27T02:07:46;13.17;;;5.77;;
8574;SDS011;4325;42.520;27.448;2022-09-27T02:10:18;10.50;;;5.80;;
8574;SDS011;4325;42.520;27.448;2022-09-27T02:12:50;8.07;;;5.90;;
8574;SDS011;4325;42.520;27.448;2022-09-27T02:15:22;7.73;;;5.73;;
8574;SDS011;4325;42.520;27.448;2022-09-27T02:17:54;8.33;;;6.33;;
8574;SDS011;4325;42.520;27.448;2022-09-27T02:20:25;6.87;;;6.20;;
8574;SDS011;4325;42.520;27.448;2022-09-27T02:22:57;6.77;;;6.07;;
8574;SDS011;4325;42.520;27.448;2022-09-27T02:25:37;10.70;;;6.20;;
8574;SDS011;4325;42.520;27.448;2022-09-27T02:28:12;8.57;;;6.27;;
8574;SDS011;4325;42.520;27.448;2022-09-27T02:30:47;8.67;;;6.07;;
8574;SDS011;4325;42.520;27.448;2022-09-27T02:33:16;7.67;;;6.30;;
8574;SDS011;4325;42.520;27.448;2022-09-27T02:35:45;7.60;;;6.10;;
8574;SDS011;4325;42.520;27.448;2022-09-27T02:38:12;6.30;;;5.70;;
8574;SDS011;4325;42.520;27.448;2022-09-27T02:40:41;6.63;;;5.87;;
8574;SDS011;4325;42.520;27.448;2022-09-27T02:43:09;7.00;;;5.63;;
8574;SDS011;4325;42.520;27.448;2022-09-27T02:45:39;8.90;;;6.23;;
8574;SDS011;4325;42.520;27.448;2022-09-27T02:48:18;10.53;;;5.93;;
8574;SDS011;4325;42.520;27.448;2022-09-27T02:50:57;6.80;;;5.77;;
8574;SDS011;4325;42.520;27.448;2022-09-27T02:53:41;8.53;;;6.07;;
8574;SDS011;4325;42.520;27.448;2022-09-27T02:56:22;6.93;;;6.23;;
8574;SDS011;4325;42.520;27.448;2022-09-27T02:59:06;8.70;;;6.30;;
8574;SDS011;4325;42.520;27.448;2022-09-27T03:01:42;9.77;;;6.33;;
8574;SDS011;4325;42.520;27.448;2022-09-27T03:04:22;8.83;;;6.50;;
8574;SDS011;4325;42.520;27.448;2022-09-27T03:06:54;6.77;;;6.07;;
8574;SDS011;4325;42.520;27.448;2022-09-27T03:09:26;7.40;;;6.67;;
8574;SDS011;4325;42.520;27.448;2022-09-27T03:11:55;12.33;;;5.90;;
8574;SDS011;4325;42.520;27.448;2022-09-27T03:14:22;6.63;;;6.00;;
8574;SDS011;4325;42.520;27.448;2022-09-27T03:16:48;7.53;;;6.20;;
8574;SDS011;4325;42.520;27.448;2022-09-27T03:19:15;7.10;;;6.37;;
8574;SDS011;4325;42.520;27.448;2022-09-27T03:21:43;7.97;;;6.43;;
8574;SDS011;4325;42.520;27.448;2022-09-27T03:24:10;7.27;;;5.83;;
8574;SDS011;4325;42.520;27.448;2022-09-27T03:26:37;10.87;;;6.33;;
8574;SDS011;4325;42.520;27.448;2022-09-27T03:29:04;7.57;;;6.20;;
8574;SDS011;4325;42.520;27.448;2022-09-27T03:31:31;8.03;;;5.67;;
8574;SDS011;4325;42.520;27.448;2022-09-27T03:33:58;8.70;;;6.20;;
8574;SDS011;4325;42.520;27.448;2022-09-27T03:36:25;8.07;;;6.03;;
8574;SDS011;4325;42.520;27.448;2022-09-27T03:38:53;14.90;;;6.27;;
8574;SDS011;4325;42.520;27.448;2022-09-27T03:41:20;10.30;;;5.83;;
8574;SDS011;4325;42.520;27.448;2022-09-27T03:43:47;10.73;;;5.80;;
8574;SDS011;4325;42.520;27.448;2022-09-27T03:46:14;7.23;;;6.20;;
8574;SDS011;4325;42.520;27.448;2022-09-27T03:48:41;7.90;;;5.80;;
8574;SDS011;4325;42.520;27.448;2022-09-27T03:51:08;8.00;;;5.63;;
8574;SDS011;4325;42.520;27.448;2022-09-27T03:53:36;10.57;;;5.53;;
8574;SDS011;4325;42.520;27.448;2022-09-27T03:56:05;8.03;;;6.27;;
8574;SDS011;4325;42.520;27.448;2022-09-27T03:58:32;7.20;;;5.53;;
8574;SDS011;4325;42.520;27.448;2022-09-27T04:00:59;8.10;;;6.30;;
8574;SDS011;4325;42.520;27.448;2022-09-27T04:03:26;7.60;;;5.70;;
8574;SDS011;4325;42.520;27.448;2022-09-27T04:05:52;9.60;;;5.57;;
8574;SDS011;4325;42.520;27.448;2022-09-27T04:08:19;11.77;;;6.10;;
8574;SDS011;4325;42.520;27.448;2022-09-27T04:10:47;6.37;;;5.40;;
8574;SDS011;4325;42.520;27.448;2022-09-27T04:13:15;6.77;;;5.70;;
8574;SDS011;4325;42.520;27.448;2022-09-27T04:15:42;7.60;;;5.53;;
8574;SDS011;4325;42.520;27.448;2022-09-27T04:18:09;11.30;;;5.80;;
8574;SDS011;4325;42.520;27.448;2022-09-27T04:20:36;8.47;;;5.40;;
8574;SDS011;4325;42.520;27.448;2022-09-27T04:23:03;8.10;;;5.03;;
8574;SDS011;4325;42.520;27.448;2022-09-27T04:25:31;7.17;;;5.50;;
8574;SDS011;4325;42.520;27.448;2022-09-27T04:27:58;8.93;;;5.57;;
8574;SDS011;4325;42.520;27.448;2022-09-27T04:30:27;9.20;;;5.40;;
8574;SDS011;4325;42.520;27.448;2022-09-27T04:32:54;16.10;;;8.70;;
8574;SDS011;4325;42.520;27.448;2022-09-27T04:35:21;9.47;;;8.57;;
8574;SDS011;4325;42.520;27.448;2022-09-27T04:38:06;8.30;;;5.83;;
8574;SDS011;4325;42.520;27.448;2022-09-27T04:40:34;7.27;;;5.50;;
8574;SDS011;4325;42.520;27.448;2022-09-27T04:43:02;7.03;;;5.30;;
8574;SDS011;4325;42.520;27.448;2022-09-27T04:45:30;7.10;;;5.50;;
8574;SDS011;4325;42.520;27.448;2022-09-27T04:47:58;12.30;;;5.73;;
8574;SDS011;4325;42.520;27.448;2022-09-27T04:50:25;8.73;;;5.63;;
8574;SDS011;4325;42.520;27.448;2022-09-27T04:52:52;6.03;;;5.13;;
8574;SDS011;4325;42.520;27.448;2022-09-27T04:55:20;6.63;;;5.80;;
8574;SDS011;4325;42.520;27.448;2022-09-27T04:57:47;7.80;;;5.27;;
8574;SDS011;4325;42.520;27.448;2022-09-27T05:00:15;6.07;;;5.30;;
8574;SDS011;4325;42.520;27.448;2022-09-27T05:02:43;10.23;;;5.90;;
8574;SDS011;4325;42.520;27.448;2022-09-27T05:05:12;9.20;;;5.47;;
8574;SDS011;4325;42.520;27.448;2022-09-27T05:07:39;6.73;;;5.73;;
8574;SDS011;4325;42.520;27.448;2022-09-27T05:10:07;11.07;;;5.97;;
8574;SDS011;4325;42.520;27.448;2022-09-27T05:12:35;11.23;;;5.90;;
8574;SDS011;4325;42.520;27.448;2022-09-27T05:15:02;7.60;;;5.90;;
8574;SDS011;4325;42.520;27.448;2022-09-27T05:17:29;7.23;;;5.43;;
8574;SDS011;4325;42.520;27.448;2022-09-27T05:19:58;9.17;;;5.60;;
8574;SDS011;4325;42.520;27.448;2022-09-27T05:22:25;9.23;;;5.53;;
8574;SDS011;4325;42.520;27.448;2022-09-27T05:24:51;7.07;;;5.20;;
8574;SDS011;4325;42.520;27.448;2022-09-27T05:27:18;7.50;;;5.13;;
8574;SDS011;4325;42.520;27.448;2022-09-27T05:29:45;7.53;;;5.37;;
8574;SDS011;4325;42.520;27.448;2022-09-27T05:32:13;5.63;;;4.90;;
8574;SDS011;4325;42.520;27.448;2022-09-27T05:34:40;7.30;;;5.30;;
8574;SDS011;4325;42.520;27.448;2022-09-27T05:37:09;6.87;;;5.70;;
8574;SDS011;4325;42.520;27.448;2022-09-27T05:39:36;13.13;;;5.60;;
8574;SDS011;4325;42.520;27.448;2022-09-27T05:42:03;10.17;;;5.87;;
8574;SDS011;4325;42.520;27.448;2022-09-27T05:44:31;7.23;;;5.30;;
8574;SDS011;4325;42.520;27.448;2022-09-27T05:46:59;8.80;;;5.77;;
8574;SDS011;4325;42.520;27.448;2022-09-27T05:49:27;11.13;;;5.73;;
8574;SDS011;4325;42.520;27.448;2022-09-27T05:51:54;10.60;;;5.10;;
8574;SDS011;4325;42.520;27.448;2022-09-27T05:54:22;11.80;;;5.73;;
8574;SDS011;4325;42.520;27.448;2022-09-27T05:56:49;11.97;;;5.57;;
8574;SDS011;4325;42.520;27.448;2022-09-27T05:59:22;9.07;;;5.33;;
8574;SDS011;4325;42.520;27.448;2022-09-27T06:01:49;9.97;;;5.67;;
8574;SDS011;4325;42.520;27.448;2022-09-27T06:04:16;7.47;;;5.23;;
8574;SDS011;4325;42.520;27.448;2022-09-27T06:06:43;9.13;;;5.30;;
8574;SDS011;4325;42.520;27.448;2022-09-27T06:09:11;9.17;;;4.83;;
8574;SDS011;4325;42.520;27.448;2022-09-27T06:11:40;5.60;;;5.10;;
8574;SDS011;4325;42.520;27.448;2022-09-27T06:14:07;8.10;;;5.27;;
8574;SDS011;4325;42.520;27.448;2022-09-27T06:16:34;7.63;;;5.07;;
8574;SDS011;4325;42.520;27.448;2022-09-27T06:19:01;6.90;;;4.70;;
8574;SDS011;4325;42.520;27.448;2022-09-27T06:21:28;11.33;;;5.13;;
8574;SDS011;4325;42.520;27.448;2022-09-27T06:23:56;6.00;;;4.40;;
8574;SDS011;4325;42.520;27.448;2022-09-27T06:26:24;9.23;;;4.70;;
8574;SDS011;4325;42.520;27.448;2022-09-27T06:28:52;7.27;;;4.50;;
8574;SDS011;4325;42.520;27.448;2022-09-27T06:31:20;7.20;;;4.67;;
8574;SDS011;4325;42.520;27.448;2022-09-27T06:33:47;8.60;;;4.97;;
8574;SDS011;4325;42.520;27.448;2022-09-27T06:36:14;7.67;;;5.20;;
8574;SDS011;4325;42.520;27.448;2022-09-27T06:38:41;4.90;;;4.47;;
8574;SDS011;4325;42.520;27.448;2022-09-27T06:41:10;8.10;;;4.43;;
8574;SDS011;4325;42.520;27.448;2022-09-27T06:43:39;15.57;;;4.70;;
8574;SDS011;4325;42.520;27.448;2022-09-27T06:46:07;6.60;;;4.50;;
8574;SDS011;4325;42.520;27.448;2022-09-27T06:48:35;7.63;;;4.60;;
8574;SDS011;4325;42.520;27.448;2022-09-27T06:51:03;10.53;;;4.57;;
8574;SDS011;4325;42.520;27.448;2022-09-27T06:53:31;8.60;;;4.37;;
8574;SDS011;4325;42.520;27.448;2022-09-27T06:55:58;11.77;;;4.37;;
8574;SDS011;4325;42.520;27.448;2022-09-27T06:58:26;5.87;;;4.40;;
8574;SDS011;4325;42.520;27.448;2022-09-27T07:01:12;8.20;;;4.00;;
8574;SDS011;4325;42.520;27.448;2022-09-27T07:03:39;9.17;;;5.20;;
8574;SDS011;4325;42.520;27.448;2022-09-27T07:06:11;20.23;;;15.43;;
8574;SDS011;4325;42.520;27.448;2022-09-27T07:08:42;8.03;;;5.30;;
8574;SDS011;4325;42.520;27.448;2022-09-27T07:11:09;10.97;;;5.40;;
8574;SDS011;4325;42.520;27.448;2022-09-27T07:13:36;9.03;;;4.77;;
8574;SDS011;4325;42.520;27.448;2022-09-27T07:16:07;16.83;;;5.20;;
8574;SDS011;4325;42.520;27.448;2022-09-27T07:18:37;16.23;;;5.07;;
8574;SDS011;4325;42.520;27.448;2022-09-27T07:21:04;8.60;;;5.00;;
8574;SDS011;4325;42.520;27.448;2022-09-27T07:23:32;12.53;;;4.40;;
8574;SDS011;4325;42.520;27.448;2022-09-27T07:26:00;13.70;;;5.13;;
8574;SDS011;4325;42.520;27.448;2022-09-27T07:28:28;7.93;;;4.73;;
8574;SDS011;4325;42.520;27.448;2022-09-27T07:30:55;19.20;;;5.00;;
8574;SDS011;4325;42.520;27.448;2022-09-27T07:33:23;6.70;;;5.33;;
8574;SDS011;4325;42.520;27.448;2022-09-27T07:35:51;9.67;;;4.50;;
8574;SDS011;4325;42.520;27.448;2022-09-27T07:38:18;7.57;;;4.90;;
8574;SDS011;4325;42.520;27.448;2022-09-27T07:40:45;9.43;;;4.83;;
8574;SDS011;4325;42.520;27.448;2022-09-27T07:43:12;7.47;;;4.63;;
8574;SDS011;4325;42.520;27.448;2022-09-27T07:45:39;7.97;;;4.97;;
8574;SDS011;4325;42.520;27.448;2022-09-27T07:48:06;11.60;;;4.47;;
8574;SDS011;4325;42.520;27.448;2022-09-27T07:50:34;11.03;;;3.73;;
8574;SDS011;4325;42.520;27.448;2022-09-27T07:53:03;15.30;;;4.20;;
8574;SDS011;4325;42.520;27.448;2022-09-27T07:55:30;8.80;;;4.10;;
8574;SDS011;4325;42.520;27.448;2022-09-27T07:58:04;9.13;;;4.47;;
8574;SDS011;4325;42.520;27.448;2022-09-27T08:00:33;7.63;;;3.07;;
8574;SDS011;4325;42.520;27.448;2022-09-27T08:03:02;6.60;;;3.60;;
8574;SDS011;4325;42.520;27.448;2022-09-27T08:05:30;13.97;;;4.50;;
8574;SDS011;4325;42.520;27.448;2022-09-27T08:07:58;7.97;;;4.03;;
8574;SDS011;4325;42.520;27.448;2022-09-27T08:10:27;8.17;;;4.23;;
8574;SDS011;4325;42.520;27.448;2022-09-27T08:12:54;10.67;;;3.80;;
8574;SDS011;4325;42.520;27.448;2022-09-27T08:15:22;9.00;;;3.60;;
8574;SDS011;4325;42.520;27.448;2022-09-27T08:17:49;10.87;;;4.10;;
8574;SDS011;4325;42.520;27.448;2022-09-27T08:20:16;13.43;;;3.83;;
8574;SDS011;4325;42.520;27.448;2022-09-27T08:22:43;14.03;;;4.53;;
8574;SDS011;4325;42.520;27.448;2022-09-27T08:25:10;12.97;;;4.00;;
8574;SDS011;4325;42.520;27.448;2022-09-27T08:27:39;8.40;;;3.90;;
8574;SDS011;4325;42.520;27.448;2022-09-27T08:30:07;10.33;;;3.70;;
8574;SDS011;4325;42.520;27.448;2022-09-27T08:32:34;11.50;;;4.03;;
8574;SDS011;4325;42.520;27.448;2022-09-27T08:35:02;13.37;;;4.17;;
8574;SDS011;4325;42.520;27.448;2022-09-27T08:37:31;11.23;;;4.10;;
8574;SDS011;4325;42.520;27.448;2022-09-27T08:39:59;10.40;;;3.80;;
8574;SDS011;4325;42.520;27.448;2022-09-27T08:42:30;7.53;;;4.20;;
8574;SDS011;4325;42.520;27.448;2022-09-27T08:45:09;9.13;;;3.83;;
8574;SDS011;4325;42.520;27.448;2022-09-27T08:47:42;9.10;;;3.60;;
8574;SDS011;4325;42.520;27.448;2022-09-27T08:50:17;8.93;;;3.97;;
8574;SDS011;4325;42.520;27.448;2022-09-27T08:52:51;9.70;;;4.17;;
8574;SDS011;4325;42.520;27.448;2022-09-27T08:55:24;8.27;;;3.70;;
8574;SDS011;4325;42.520;27.448;2022-09-27T08:57:57;9.43;;;3.83;;
8574;SDS011;4325;42.520;27.448;2022-09-27T09:00:26;9.03;;;4.20;;
8574;SDS011;4325;42.520;27.448;2022-09-27T09:02:55;13.90;;;4.73;;
8574;SDS011;4325;42.520;27.448;2022-09-27T09:05:26;13.23;;;4.40;;
8574;SDS011;4325;42.520;27.448;2022-09-27T09:08:00;8.83;;;3.93;;
8574;SDS011;4325;42.520;27.448;2022-09-27T09:10:45;11.23;;;4.23;;
8574;SDS011;4325;42.520;27.448;2022-09-27T09:13:39;9.33;;;4.30;;
8574;SDS011;4325;42.520;27.448;2022-09-27T09:16:23;9.40;;;3.97;;
8574;SDS011;4325;42.520;27.448;2022-09-27T09:19:09;7.47;;;3.80;;
8574;SDS011;4325;42.520;27.448;2022-09-27T09:21:52;14.53;;;4.17;;
8574;SDS011;4325;42.520;27.448;2022-09-27T09:24:32;7.60;;;3.73;;
8574;SDS011;4325;42.520;27.448;2022-09-27T09:27:10;13.77;;;4.17;;
8574;SDS011;4325;42.520;27.448;2022-09-27T09:29:48;4.77;;;3.60;;
8574;SDS011;4325;42.520;27.448;2022-09-27T09:32:30;9.50;;;4.07;;
8574;SDS011;4325;42.520;27.448;2022-09-27T09:35:10;6.43;;;4.00;;
8574;SDS011;4325;42.520;27.448;2022-09-27T09:37:42;12.00;;;4.00;;
8574;SDS011;4325;42.520;27.448;2022-09-27T09:40:16;6.60;;;3.57;;
8574;SDS011;4325;42.520;27.448;2022-09-27T09:42:48;9.77;;;3.90;;
8574;SDS011;4325;42.520;27.448;2022-09-27T09:45:21;6.67;;;4.10;;
8574;SDS011;4325;42.520;27.448;2022-09-27T09:47:56;8.90;;;4.13;;
8574;SDS011;4325;42.520;27.448;2022-09-27T09:50:32;13.17;;;4.10;;
8574;SDS011;4325;42.520;27.448;2022-09-27T09:53:09;11.97;;;4.53;;
8574;SDS011;4325;42.520;27.448;2022-09-27T09:55:40;6.07;;;3.67;;
8574;SDS011;4325;42.520;27.448;2022-09-27T09:58:17;11.43;;;4.40;;
8574;SDS011;4325;42.520;27.448;2022-09-27T10:00:49;12.30;;;4.30;;
8574;SDS011;4325;42.520;27.448;2022-09-27T10:03:20;8.57;;;4.40;;
8574;SDS011;4325;42.520;27.448;2022-09-27T10:05:48;9.90;;;4.03;;
8574;SDS011;4325;42.520;27.448;2022-09-27T10:08:16;6.63;;;3.60;;
8574;SDS011;4325;42.520;27.448;2022-09-27T10:10:45;5.63;;;3.70;;
8574;SDS011;4325;42.520;27.448;2022-09-27T10:13:13;10.20;;;4.23;;
8574;SDS011;4325;42.520;27.448;2022-09-27T10:15:41;9.83;;;3.60;;
8574;SDS011;4325;42.520;27.448;2022-09-27T10:18:13;6.30;;;3.80;;
8574;SDS011;4325;42.520;27.448;2022-09-27T10:20:46;11.90;;;4.13;;
8574;SDS011;4325;42.520;27.448;2022-09-27T10:23:17;7.83;;;3.53;;
8574;SDS011;4325;42.520;27.448;2022-09-27T10:25:47;6.97;;;3.77;;
8574;SDS011;4325;42.520;27.448;2022-09-27T10:28:27;9.73;;;4.47;;
8574;SDS011;4325;42.520;27.448;2022-09-27T10:30:58;9.40;;;3.90;;
8574;SDS011;4325;42.520;27.448;2022-09-27T10:33:27;11.97;;;4.50;;
8574;SDS011;4325;42.520;27.448;2022-09-27T10:35:57;11.10;;;3.60;;
8574;SDS011;4325;42.520;27.448;2022-09-27T10:38:25;9.60;;;4.20;;
8574;SDS011;4325;42.520;27.448;2022-09-27T10:40:54;15.37;;;4.10;;
8574;SDS011;4325;42.520;27.448;2022-09-27T10:43:27;11.80;;;3.60;;
8574;SDS011;4325;42.520;27.448;2022-09-27T10:46:03;10.30;;;4.13;;
8574;SDS011;4325;42.520;27.448;2022-09-27T10:48:37;11.27;;;4.13;;
8574;SDS011;4325;42.520;27.448;2022-09-27T10:51:18;14.10;;;3.63;;
8574;SDS011;4325;42.520;27.448;2022-09-27T10:53:50;8.20;;;4.00;;
8574;SDS011;4325;42.520;27.448;2022-09-27T10:56:21;8.33;;;4.37;;
8574;SDS011;4325;42.520;27.448;2022-09-27T10:58:50;9.43;;;3.70;;
8574;SDS011;4325;42.520;27.448;2022-09-27T11:01:17;12.17;;;5.43;;
8574;SDS011;4325;42.520;27.448;2022-09-27T11:03:45;7.37;;;3.50;;
8574;SDS011;4325;42.520;27.448;2022-09-27T11:06:23;12.87;;;4.13;;
8574;SDS011;4325;42.520;27.448;2022-09-27T11:08:54;8.80;;;4.13;;
8574;SDS011;4325;42.520;27.448;2022-09-27T11:11:24;16.10;;;6.73;;
8574;SDS011;4325;42.520;27.448;2022-09-27T11:13:56;8.27;;;5.10;;
8574;SDS011;4325;42.520;27.448;2022-09-27T11:16:31;4.60;;;3.33;;
8574;SDS011;4325;42.520;27.448;2022-09-27T11:19:21;13.10;;;7.27;;
8574;SDS011;4325;42.520;27.448;2022-09-27T11:22:00;13.30;;;9.93;;
8574;SDS011;4325;42.520;27.448;2022-09-27T11:24:48;11.47;;;6.53;;
8574;SDS011;4325;42.520;27.448;2022-09-27T11:27:27;14.50;;;5.60;;
8574;SDS011;4325;42.520;27.448;2022-09-27T11:30:04;10.93;;;4.30;;
8574;SDS011;4325;42.520;27.448;2022-09-27T11:32:45;9.37;;;5.20;;
8574;SDS011;4325;42.520;27.448;2022-09-27T11:35:31;20.70;;;9.23;;
8574;SDS011;4325;42.520;27.448;2022-09-27T11:38:16;25.77;;;18.03;;
8574;SDS011;4325;42.520;27.448;2022-09-27T11:40:55;15.63;;;10.00;;
8574;SDS011;4325;42.520;27.448;2022-09-27T11:43:34;16.27;;;6.60;;
8574;SDS011;4325;42.520;27.448;2022-09-27T11:46:13;9.20;;;4.20;;
8574;SDS011;4325;42.520;27.448;2022-09-27T11:48:52;9.83;;;6.60;;
8574;SDS011;4325;42.520;27.448;2022-09-27T11:51:35;13.37;;;6.13;;
8574;SDS011;4325;42.520;27.448;2022-09-27T11:54:22;11.23;;;4.97;;
8574;SDS011;4325;42.520;27.448;2022-09-27T11:56:57;14.17;;;8.63;;
8574;SDS011;4325;42.520;27.448;2022-09-27T12:05:30;10.00;;;6.90;;
8574;SDS011;4325;42.520;27.448;2022-09-27T12:08:10;16.50;;;9.70;;
8574;SDS011;4325;42.520;27.448;2022-09-27T12:10:50;13.47;;;6.10;;
8574;SDS011;4325;42.520;27.448;2022-09-27T12:13:22;11.70;;;5.23;;
8574;SDS011;4325;42.520;27.448;2022-09-27T12:15:55;11.23;;;4.90;;
8574;SDS011;4325;42.520;27.448;2022-09-27T12:18:23;7.20;;;4.80;;
8574;SDS011;4325;42.520;27.448;2022-09-27T12:20:56;11.97;;;6.27;;
8574;SDS011;4325;42.520;27.448;2022-09-27T12:23:28;10.00;;;3.97;;
8574;SDS011;4325;42.520;27.448;2022-09-27T12:26:04;8.80;;;3.33;;
8574;SDS011;4325;42.520;27.448;2022-09-27T12:28:36;11.63;;;3.93;;
8574;SDS011;4325;42.520;27.448;2022-09-27T12:31:09;10.97;;;3.87;;
8574;SDS011;4325;42.520;27.448;2022-09-27T12:33:43;10.30;;;3.87;;
8574;SDS011;4325;42.520;27.448;2022-09-27T12:36:17;8.53;;;4.27;;
8574;SDS011;4325;42.520;27.448;2022-09-27T12:38:50;10.23;;;3.90;;
8574;SDS011;4325;42.520;27.448;2022-09-27T12:41:23;9.73;;;3.80;;
8574;SDS011;4325;42.520;27.448;2022-09-27T12:43:52;12.10;;;3.70;;
8574;SDS011;4325;42.520;27.448;2022-09-27T12:46:22;6.03;;;3.53;;
8574;SDS011;4325;42.520;27.448;2022-09-27T12:48:59;11.63;;;3.73;;
8574;SDS011;4325;42.520;27.448;2022-09-27T12:51:31;9.77;;;3.50;;
8574;SDS011;4325;42.520;27.448;2022-09-27T12:54:16;11.60;;;3.83;;
8574;SDS011;4325;42.520;27.448;2022-09-27T12:57:09;11.17;;;4.07;;
8574;SDS011;4325;42.520;27.448;2022-09-27T12:59:51;12.70;;;4.23;;
8574;SDS011;4325;42.520;27.448;2022-09-27T13:02:46;9.10;;;3.97;;
8574;SDS011;4325;42.520;27.448;2022-09-27T13:05:37;6.63;;;3.90;;
8574;SDS011;4325;42.520;27.448;2022-09-27T13:08:34;8.57;;;3.67;;
8574;SDS011;4325;42.520;27.448;2022-09-27T13:11:19;12.17;;;3.80;;
8574;SDS011;4325;42.520;27.448;2022-09-27T13:13:54;8.37;;;3.63;;
8574;SDS011;4325;42.520;27.448;2022-09-27T13:16:23;11.37;;;3.90;;
8574;SDS011;4325;42.520;27.448;2022-09-27T13:18:53;8.40;;;3.77;;
8574;SDS011;4325;42.520;27.448;2022-09-27T13:24:30;8.40;;;4.00;;
8574;SDS011;4325;42.520;27.448;2022-09-27T13:27:19;12.00;;;4.00;;
8574;SDS011;4325;42.520;27.448;2022-09-27T13:36:15;12.37;;;3.77;;
8574;SDS011;4325;42.520;27.448;2022-09-27T13:38:58;13.33;;;4.20;;
8574;SDS011;4325;42.520;27.448;2022-09-27T13:41:34;9.70;;;4.03;;
8574;SDS011;4325;42.520;27.448;2022-09-27T13:44:20;10.80;;;3.67;;
8574;SDS011;4325;42.520;27.448;2022-09-27T13:46:54;7.90;;;3.27;;
8574;SDS011;4325;42.520;27.448;2022-09-27T13:49:29;8.37;;;3.47;;
8574;SDS011;4325;42.520;27.448;2022-09-27T13:52:02;9.23;;;3.53;;
8574;SDS011;4325;42.520;27.448;2022-09-27T13:54:48;12.10;;;4.33;;
8574;SDS011;4325;42.520;27.448;2022-09-27T14:00:16;8.63;;;3.83;;
8574;SDS011;4325;42.520;27.448;2022-09-27T14:03:00;9.50;;;4.07;;
8574;SDS011;4325;42.520;27.448;2022-09-27T14:05:31;7.07;;;4.10;;
8574;SDS011;4325;42.520;27.448;2022-09-27T14:08:02;8.33;;;4.23;;
8574;SDS011;4325;42.520;27.448;2022-09-27T14:10:32;11.30;;;4.43;;
8574;SDS011;4325;42.520;27.448;2022-09-27T14:13:02;9.63;;;3.70;;
8574;SDS011;4325;42.520;27.448;2022-09-27T14:15:31;9.50;;;3.67;;
8574;SDS011;4325;42.520;27.448;2022-09-27T14:17:59;11.10;;;4.30;;
8574;SDS011;4325;42.520;27.448;2022-09-27T14:20:32;9.50;;;3.37;;
8574;SDS011;4325;42.520;27.448;2022-09-27T14:23:00;8.83;;;4.20;;
8574;SDS011;4325;42.520;27.448;2022-09-27T14:25:28;8.73;;;3.33;;
8574;SDS011;4325;42.520;27.448;2022-09-27T14:27:55;9.10;;;4.30;;
8574;SDS011;4325;42.520;27.448;2022-09-27T14:30:25;8.83;;;3.70;;
8574;SDS011;4325;42.520;27.448;2022-09-27T14:32:54;10.73;;;3.83;;
8574;SDS011;4325;42.520;27.448;2022-09-27T14:35:25;8.50;;;3.47;;
8574;SDS011;4325;42.520;27.448;2022-09-27T14:38:12;5.30;;;2.60;;
8574;SDS011;4325;42.520;27.448;2022-09-27T14:40:41;6.27;;;3.20;;
8574;SDS011;4325;42.520;27.448;2022-09-27T14:45:40;11.53;;;3.20;;
8574;SDS011;4325;42.520;27.448;2022-09-27T14:48:16;6.80;;;3.27;;
8574;SDS011;4325;42.520;27.448;2022-09-27T14:50:51;6.20;;;3.10;;
8574;SDS011;4325;42.520;27.448;2022-09-27T14:53:22;10.20;;;3.33;;
8574;SDS011;4325;42.520;27.448;2022-09-27T14:55:50;5.90;;;3.23;;
8574;SDS011;4325;42.520;27.448;2022-09-27T14:58:19;7.97;;;3.00;;
8574;SDS011;4325;42.520;27.448;2022-09-27T15:00:48;6.43;;;2.77;;
8574;SDS011;4325;42.520;27.448;2022-09-27T15:03:18;7.40;;;2.57;;
8574;SDS011;4325;42.520;27.448;2022-09-27T15:05:49;6.30;;;2.73;;
8574;SDS011;4325;42.520;27.448;2022-09-27T15:08:18;4.70;;;2.50;;
8574;SDS011;4325;42.520;27.448;2022-09-27T15:10:49;5.83;;;2.70;;
8574;SDS011;4325;42.520;27.448;2022-09-27T15:13:18;12.27;;;3.10;;
8574;SDS011;4325;42.520;27.448;2022-09-27T15:15:46;13.30;;;3.40;;
8574;SDS011;4325;42.520;27.448;2022-09-27T15:18:30;9.73;;;3.10;;
8574;SDS011;4325;42.520;27.448;2022-09-27T15:21:04;7.60;;;2.70;;
8574;SDS011;4325;42.520;27.448;2022-09-27T15:23:35;6.83;;;3.17;;
8574;SDS011;4325;42.520;27.448;2022-09-27T15:26:06;8.37;;;2.73;;
8574;SDS011;4325;42.520;27.448;2022-09-27T15:28:36;6.50;;;3.30;;
8574;SDS011;4325;42.520;27.448;2022-09-27T15:31:07;6.37;;;3.03;;
8574;SDS011;4325;42.520;27.448;2022-09-27T15:33:35;10.13;;;3.17;;
8574;SDS011;4325;42.520;27.448;2022-09-27T15:36:03;5.43;;;2.73;;
8574;SDS011;4325;42.520;27.448;2022-09-27T15:38:32;6.23;;;2.97;;
8574;SDS011;4325;42.520;27.448;2022-09-27T15:41:07;8.63;;;3.10;;
8574;SDS011;4325;42.520;27.448;2022-09-27T15:43:37;10.70;;;3.10;;
8574;SDS011;4325;42.520;27.448;2022-09-27T15:46:26;7.73;;;3.07;;
8574;SDS011;4325;42.520;27.448;2022-09-27T15:51:58;10.50;;;3.50;;
8574;SDS011;4325;42.520;27.448;2022-09-27T15:54:27;10.40;;;2.90;;